createdAt,value
2018-04-26T00:00:56.712Z,1008.90
2018-04-26T00:01:56.708Z,1008.89
2018-04-26T00:02:56.701Z,1008.86
2018-04-26T00:03:56.697Z,1008.90
2018-04-26T00:04:56.694Z,1008.89
2018-04-26T00:05:56.690Z,1008.87
2018-04-26T00:06:56.681Z,1008.91
2018-04-26T00:07:56.675Z,1008.91
2018-04-26T00:08:56.676Z,1008.89
2018-04-26T00:09:56.671Z,1008.87
2018-04-26T00:10:56.658Z,1008.92
2018-04-26T00:11:56.653Z,1008.92
2018-04-26T00:12:56.647Z,1008.91
2018-04-26T00:13:56.641Z,1008.88
2018-04-26T00:14:56.636Z,1008.84
2018-04-26T00:15:56.630Z,1008.89
2018-04-26T00:16:56.630Z,1008.91
2018-04-26T00:17:56.624Z,1008.89
2018-04-26T00:18:56.618Z,1008.87
2018-04-26T00:19:56.619Z,1008.91
2018-04-26T00:20:56.602Z,1008.89
2018-04-26T00:21:56.596Z,1008.95
2018-04-26T00:22:56.592Z,1008.94
2018-04-26T00:23:56.586Z,1008.97
2018-04-26T00:24:56.582Z,1008.96
2018-04-26T00:25:56.576Z,1008.97
2018-04-26T00:26:56.569Z,1008.98
2018-04-26T00:27:56.566Z,1008.96
2018-04-26T00:28:56.558Z,1008.91
2018-04-26T00:29:56.556Z,1008.98
2018-04-26T00:30:56.551Z,1008.91
2018-04-26T00:31:56.549Z,1008.95
2018-04-26T00:32:56.535Z,1008.93
2018-04-26T00:33:56.531Z,1008.95
2018-04-26T00:34:56.526Z,1008.96
2018-04-26T00:35:56.564Z,1008.95
2018-04-26T00:36:56.519Z,1008.93
2018-04-26T00:37:56.513Z,1008.97
2018-04-26T00:38:56.504Z,1008.95
2018-04-26T00:39:56.499Z,1008.99
2018-04-26T00:40:56.491Z,1008.90
2018-04-26T00:41:56.491Z,1008.93
2018-04-26T00:42:56.481Z,1008.96
2018-04-26T00:43:56.476Z,1008.98
2018-04-26T00:44:56.470Z,1008.94
2018-04-26T00:45:56.464Z,1008.91
2018-04-26T00:46:56.461Z,1008.98
2018-04-26T00:47:56.468Z,1008.99
2018-04-26T00:48:56.452Z,1008.93
2018-04-26T00:49:56.447Z,1008.97
2018-04-26T00:50:56.443Z,1008.92
2018-04-26T00:51:56.437Z,1008.95
2018-04-26T00:52:56.428Z,1008.94
2018-04-26T00:53:56.423Z,1009.00
2018-04-26T00:54:56.417Z,1008.98
2018-04-26T00:55:56.412Z,1008.96
2018-04-26T00:56:56.406Z,1008.98
2018-04-26T00:57:56.402Z,1008.92
2018-04-26T00:58:56.400Z,1008.94
2018-04-26T00:59:56.393Z,1008.91
2018-04-26T01:00:56.385Z,1008.99
2018-04-26T01:01:56.381Z,1008.94
2018-04-26T01:02:56.379Z,1008.98
2018-04-26T01:03:56.378Z,1009.00
2018-04-26T01:04:56.370Z,1008.94
2018-04-26T01:05:56.369Z,1008.95
2018-04-26T01:06:56.356Z,1008.98
2018-04-26T01:07:56.357Z,1008.99
2018-04-26T01:08:56.344Z,1008.88
2018-04-26T01:09:56.351Z,1008.94
2018-04-26T01:10:56.339Z,1008.95
2018-04-26T01:11:56.333Z,1008.95
2018-04-26T01:12:56.323Z,1008.97
2018-04-26T01:13:56.318Z,1008.95
2018-04-26T01:14:56.318Z,1008.94
2018-04-26T01:15:56.313Z,1008.91
2018-04-26T01:16:56.307Z,1008.91
2018-04-26T01:17:56.298Z,1008.91
2018-04-26T01:18:56.293Z,1008.92
2018-04-26T01:19:56.307Z,1008.94
2018-04-26T01:20:56.283Z,1008.89
2018-04-26T01:21:56.277Z,1008.93
2018-04-26T01:22:56.273Z,1008.93
2018-04-26T01:23:56.270Z,1008.93
2018-04-26T01:24:56.262Z,1008.90
2018-04-26T01:25:56.259Z,1008.89
2018-04-26T01:26:56.253Z,1008.96
2018-04-26T01:27:56.248Z,1008.90
2018-04-26T01:28:56.246Z,1008.87
2018-04-26T01:29:56.241Z,1008.87
2018-04-26T01:30:56.232Z,1008.84
2018-04-26T01:31:56.227Z,1008.91
2018-04-26T01:32:56.225Z,1008.86
2018-04-26T01:33:56.220Z,1008.81
2018-04-26T01:34:56.212Z,1008.87
2018-04-26T01:35:56.208Z,1008.85
2018-04-26T01:36:56.203Z,1008.83
2018-04-26T01:37:56.197Z,1008.77
2018-04-26T01:38:56.191Z,1008.81
2018-04-26T01:39:56.187Z,1008.81
2018-04-26T01:40:56.180Z,1008.83
2018-04-26T01:41:56.177Z,1008.85
2018-04-26T01:42:56.176Z,1008.84
2018-04-26T01:43:56.170Z,1008.76
2018-04-26T01:44:56.162Z,1008.83
2018-04-26T01:45:56.156Z,1008.77
2018-04-26T01:46:56.161Z,1008.84
2018-04-26T01:47:56.151Z,1008.80
2018-04-26T01:48:56.140Z,1008.78
2018-04-26T01:49:56.136Z,1008.78
2018-04-26T01:50:56.131Z,1008.76
2018-04-26T01:51:56.127Z,1008.74
2018-04-26T01:52:56.121Z,1008.74
2018-04-26T01:53:56.121Z,1008.78
2018-04-26T01:54:56.112Z,1008.78
2018-04-26T01:55:56.106Z,1008.77
2018-04-26T01:56:56.101Z,1008.76
2018-04-26T01:57:56.095Z,1008.71
2018-04-26T01:58:56.091Z,1008.70
2018-04-26T01:59:56.087Z,1008.70
2018-04-26T02:00:56.085Z,1008.72
2018-04-26T02:01:56.080Z,1008.70
2018-04-26T02:02:56.070Z,1008.68
2018-04-26T02:03:56.066Z,1008.60
2018-04-26T02:04:56.064Z,1008.70
2018-04-26T02:05:56.059Z,1008.68
2018-04-26T02:06:56.050Z,1008.72
2018-04-26T02:07:56.046Z,1008.75
2018-04-26T02:08:56.040Z,1008.78
2018-04-26T02:09:56.036Z,1008.75
2018-04-26T02:10:56.033Z,1008.78
2018-04-26T02:11:56.032Z,1008.78
2018-04-26T02:12:56.023Z,1008.76
2018-04-26T02:13:56.021Z,1008.81
2018-04-26T02:14:56.012Z,1008.77
2018-04-26T02:15:56.010Z,1008.81
2018-04-26T02:16:55.998Z,1008.82
2018-04-26T02:17:55.994Z,1008.83
2018-04-26T02:18:55.989Z,1008.85
2018-04-26T02:19:55.984Z,1008.84
2018-04-26T02:20:55.979Z,1008.79
2018-04-26T02:21:55.977Z,1008.77
2018-04-26T02:22:55.969Z,1008.79
2018-04-26T02:23:55.964Z,1008.78
2018-04-26T02:24:55.963Z,1008.78
2018-04-26T02:25:55.957Z,1008.78
2018-04-26T02:26:55.953Z,1008.86
2018-04-26T02:27:55.947Z,1008.80
2018-04-26T02:28:55.937Z,1008.82
2018-04-26T02:29:55.933Z,1008.79
2018-04-26T02:30:55.941Z,1008.81
2018-04-26T02:31:55.927Z,1008.86
2018-04-26T02:32:55.919Z,1008.83
2018-04-26T02:33:55.913Z,1008.91
2018-04-26T02:34:55.908Z,1008.84
2018-04-26T02:35:55.903Z,1008.91
2018-04-26T02:36:55.898Z,1008.81
2018-04-26T02:37:55.894Z,1008.84
2018-04-26T02:38:55.891Z,1008.90
2018-04-26T02:39:55.888Z,1008.89
2018-04-26T02:40:55.878Z,1008.82
2018-04-26T02:41:55.871Z,1008.83
2018-04-26T02:42:55.865Z,1008.82
2018-04-26T02:43:55.860Z,1008.83
2018-04-26T02:44:55.860Z,1008.81
2018-04-26T02:45:55.855Z,1008.80
2018-04-26T02:46:55.846Z,1008.86
2018-04-26T02:47:55.841Z,1008.85
2018-04-26T02:48:55.836Z,1008.85
2018-04-26T02:49:55.830Z,1008.82
2018-04-26T02:50:55.825Z,1008.80
2018-04-26T02:51:55.820Z,1008.81
2018-04-26T02:52:55.813Z,1008.85
2018-04-26T02:53:55.808Z,1008.81
2018-04-26T02:54:55.805Z,1008.83
2018-04-26T02:55:55.798Z,1008.81
2018-04-26T02:56:55.796Z,1008.84
2018-04-26T02:57:55.792Z,1008.85
2018-04-26T02:58:55.786Z,1008.84
2018-04-26T02:59:55.782Z,1008.88
2018-04-26T03:00:55.773Z,1008.81
2018-04-26T03:01:55.767Z,1008.88
2018-04-26T03:02:55.762Z,1008.88
2018-04-26T03:03:55.762Z,1008.89
2018-04-26T03:04:55.751Z,1008.88
2018-04-26T03:05:55.748Z,1008.88
2018-04-26T03:06:55.743Z,1008.89
2018-04-26T03:07:55.737Z,1008.88
2018-04-26T03:08:55.730Z,1008.79
2018-04-26T03:09:55.725Z,1008.85
2018-04-26T03:10:55.725Z,1008.81
2018-04-26T03:11:55.720Z,1008.82
2018-04-26T03:12:55.710Z,1008.83
2018-04-26T03:13:55.705Z,1008.81
2018-04-26T03:14:55.702Z,1008.85
2018-04-26T03:15:55.695Z,1008.89
2018-04-26T03:16:55.689Z,1008.83
2018-04-26T03:17:55.684Z,1008.83
2018-04-26T03:18:55.685Z,1008.86
2018-04-26T03:19:55.682Z,1008.84
2018-04-26T03:20:55.669Z,1008.87
2018-04-26T03:21:55.664Z,1008.92
2018-04-26T03:22:55.664Z,1008.88
2018-04-26T03:23:55.658Z,1008.89
2018-04-26T03:24:55.650Z,1008.93
2018-04-26T03:25:55.643Z,1008.95
2018-04-26T03:26:55.638Z,1008.98
2018-04-26T03:27:55.700Z,1008.97
2018-04-26T03:28:55.627Z,1008.98
2018-04-26T03:29:55.623Z,1008.97
2018-04-26T03:30:55.689Z,1009.04
2018-04-26T03:31:55.615Z,1009.03
2018-04-26T03:32:55.609Z,1009.01
2018-04-26T03:33:55.603Z,1009.02
2018-04-26T03:34:55.597Z,1009.00
2018-04-26T03:35:55.594Z,1009.01
2018-04-26T03:36:55.590Z,1009.02
2018-04-26T03:37:55.586Z,1009.03
2018-04-26T03:38:55.576Z,1009.08
2018-04-26T03:39:55.572Z,1009.05
2018-04-26T03:40:55.575Z,1009.10
2018-04-26T03:41:55.566Z,1009.09
2018-04-26T03:42:55.630Z,1009.07
2018-04-26T03:43:55.553Z,1009.01
2018-04-26T03:44:55.546Z,1009.03
2018-04-26T03:45:55.543Z,1009.01
2018-04-26T03:46:55.537Z,1009.06
2018-04-26T03:47:55.532Z,1009.06
2018-04-26T03:48:55.527Z,1009.01
2018-04-26T03:49:55.521Z,1009.02
2018-04-26T03:50:55.521Z,1009.06
2018-04-26T03:51:55.516Z,1009.11
2018-04-26T03:52:55.506Z,1009.04
2018-04-26T03:53:55.502Z,1009.02
2018-04-26T03:54:55.500Z,1009.04
2018-04-26T03:55:55.495Z,1009.00
2018-04-26T03:56:55.487Z,1009.09
2018-04-26T03:57:55.481Z,1009.02
2018-04-26T03:58:55.475Z,1009.03
2018-04-26T03:59:55.471Z,1009.03
2018-04-26T04:00:55.466Z,1009.07
2018-04-26T04:01:55.461Z,1009.10
2018-04-26T04:02:55.456Z,1009.09
2018-04-26T04:03:55.450Z,1009.07
2018-04-26T04:04:55.446Z,1009.11
2018-04-26T04:05:55.439Z,1009.09
2018-04-26T04:06:55.434Z,1009.05
2018-04-26T04:07:55.429Z,1009.14
2018-04-26T04:08:55.427Z,1009.07
2018-04-26T04:09:55.423Z,1009.11
2018-04-26T04:10:55.415Z,1009.14
2018-04-26T04:11:55.409Z,1009.11
2018-04-26T04:12:55.407Z,1009.14
2018-04-26T04:13:55.530Z,1009.19
2018-04-26T04:14:55.394Z,1009.20
2018-04-26T04:15:55.388Z,1009.20
2018-04-26T04:16:55.382Z,1009.24
2018-04-26T04:17:55.379Z,1009.29
2018-04-26T04:18:55.388Z,1009.30
2018-04-26T04:19:55.369Z,1009.25
2018-04-26T04:20:55.360Z,1009.31
2018-04-26T04:21:55.355Z,1009.28
2018-04-26T04:22:55.356Z,1009.27
2018-04-26T04:23:55.351Z,1009.29
2018-04-26T04:24:55.339Z,1009.26
2018-04-26T04:25:55.334Z,1009.27
2018-04-26T04:26:55.333Z,1009.29
2018-04-26T04:27:55.399Z,1009.33
2018-04-26T04:28:55.318Z,1009.30
2018-04-26T04:29:55.314Z,1009.34
2018-04-26T04:30:55.313Z,1009.34
2018-04-26T04:31:55.304Z,1009.37
2018-04-26T04:32:55.299Z,1009.38
2018-04-26T04:33:55.294Z,1009.39
2018-04-26T04:34:55.288Z,1009.39
2018-04-26T04:35:55.288Z,1009.37
2018-04-26T04:36:55.278Z,1009.47
2018-04-26T04:37:55.272Z,1009.42
2018-04-26T04:38:55.268Z,1009.43
2018-04-26T04:39:55.263Z,1009.56
2018-04-26T04:40:55.260Z,1009.50
2018-04-26T04:41:55.256Z,1009.47
2018-04-26T04:42:55.247Z,1009.49
2018-04-26T04:43:55.241Z,1009.53
2018-04-26T04:44:55.241Z,1009.51
2018-04-26T04:45:55.235Z,1009.49
2018-04-26T04:46:55.226Z,1009.50
2018-04-26T04:47:55.221Z,1009.48
2018-04-26T04:48:55.279Z,1009.55
2018-04-26T04:49:55.213Z,1009.49
2018-04-26T04:50:55.279Z,1009.46
2018-04-26T04:51:55.201Z,1009.46
2018-04-26T04:52:55.196Z,1009.50
2018-04-26T04:53:55.190Z,1009.52
2018-04-26T04:54:55.192Z,1009.54
2018-04-26T04:55:55.185Z,1009.54
2018-04-26T04:56:55.175Z,1009.50
2018-04-26T04:57:55.169Z,1009.56
2018-04-26T04:58:55.169Z,1009.59
2018-04-26T04:59:55.164Z,1009.60
2018-04-26T05:00:55.153Z,1009.57
2018-04-26T05:01:55.198Z,1009.57
2018-04-26T05:02:55.144Z,1009.53
2018-04-26T05:03:55.142Z,1009.55
2018-04-26T05:04:55.134Z,1009.59
2018-04-26T05:05:55.128Z,1009.59
2018-04-26T05:06:55.126Z,1009.62
2018-04-26T05:07:55.118Z,1009.58
2018-04-26T05:08:55.113Z,1009.59
2018-04-26T05:09:55.109Z,1009.67
2018-04-26T05:10:55.103Z,1009.68
2018-04-26T05:11:55.098Z,1009.74
2018-04-26T05:12:55.096Z,1009.70
2018-04-26T05:13:55.156Z,1009.73
2018-04-26T05:14:55.083Z,1009.70
2018-04-26T05:15:55.078Z,1009.75
2018-04-26T05:16:55.076Z,1009.78
2018-04-26T05:17:55.071Z,1009.82
2018-04-26T05:18:55.064Z,1009.85
2018-04-26T05:19:55.058Z,1009.85
2018-04-26T05:20:55.053Z,1009.90
2018-04-26T05:21:55.047Z,1009.90
2018-04-26T05:22:55.045Z,1009.89
2018-04-26T05:23:55.037Z,1009.88
2018-04-26T05:24:55.036Z,1009.87
2018-04-26T05:25:55.031Z,1009.87
2018-04-26T05:26:55.022Z,1009.89
2018-04-26T05:27:55.018Z,1009.87
2018-04-26T05:28:55.015Z,1009.87
2018-04-26T05:29:55.026Z,1009.84
2018-04-26T05:30:55.002Z,1009.88
2018-04-26T05:31:54.996Z,1009.83
2018-04-26T05:32:54.991Z,1009.84
2018-04-26T05:33:54.985Z,1009.94
2018-04-26T05:34:54.980Z,1009.86
2018-04-26T05:35:54.975Z,1009.92
2018-04-26T05:36:54.973Z,1009.90
2018-04-26T05:37:54.967Z,1009.95
2018-04-26T05:38:54.969Z,1009.92
2018-04-26T05:39:54.958Z,1009.90
2018-04-26T05:40:54.953Z,1009.99
2018-04-26T05:41:54.943Z,1009.94
2018-04-26T05:42:54.942Z,1009.91
2018-04-26T05:43:54.934Z,1009.96
2018-04-26T05:44:54.928Z,1009.99
2018-04-26T05:45:54.926Z,1010.01
2018-04-26T05:46:54.918Z,1010.07
2018-04-26T05:47:54.913Z,1010.27
2018-04-26T05:48:54.907Z,1010.43
2018-04-26T05:49:54.901Z,1010.35
2018-04-26T05:50:54.901Z,1010.40
2018-04-26T05:51:54.896Z,1010.51
2018-04-26T05:52:54.887Z,1010.57
2018-04-26T05:53:54.882Z,1010.50
2018-04-26T05:54:54.882Z,1010.52
2018-04-26T05:55:54.961Z,1010.55
2018-04-26T05:56:54.870Z,1010.58
2018-04-26T05:57:54.865Z,1010.52
2018-04-26T05:58:54.856Z,1010.62
2018-04-26T05:59:54.851Z,1010.71
2018-04-26T06:00:54.848Z,1010.68
2018-04-26T06:01:54.841Z,1010.80
2018-04-26T06:02:54.839Z,1010.69
2018-04-26T06:03:54.829Z,1010.57
2018-04-26T06:04:54.826Z,1010.64
2018-04-26T06:05:54.824Z,1010.64
2018-04-26T06:06:54.821Z,1010.66
2018-04-26T06:07:54.808Z,1010.65
2018-04-26T06:08:54.804Z,1010.60
2018-04-26T06:09:54.799Z,1010.60
2018-04-26T06:10:54.793Z,1010.68
2018-04-26T06:11:54.788Z,1010.71
2018-04-26T06:12:54.783Z,1010.68
2018-04-26T06:13:54.771Z,1010.69
2018-04-26T06:14:54.767Z,1010.70
2018-04-26T06:15:54.761Z,1010.73
2018-04-26T06:16:54.847Z,1010.82
2018-04-26T06:17:54.747Z,1010.78
2018-04-26T06:18:54.743Z,1010.78
2018-04-26T06:19:54.737Z,1010.69
2018-04-26T06:20:54.730Z,1010.77
2018-04-26T06:21:54.725Z,1010.74
2018-04-26T06:22:54.728Z,1010.76
2018-04-26T06:23:54.716Z,1010.77
2018-04-26T06:24:54.705Z,1010.66
2018-04-26T06:25:54.700Z,1010.70
2018-04-26T06:26:54.695Z,1010.76
2018-04-26T06:27:54.689Z,1010.82
2018-04-26T06:28:54.681Z,1010.83
2018-04-26T06:29:54.676Z,1010.81
2018-04-26T06:30:54.675Z,1010.94
2018-04-26T06:31:54.668Z,1010.94
2018-04-26T06:32:54.657Z,1011.04
2018-04-26T06:33:54.651Z,1011.10
2018-04-26T06:34:54.650Z,1010.98
2018-04-26T06:35:54.644Z,1010.97
2018-04-26T06:36:54.664Z,1010.95
2018-04-26T06:37:54.628Z,1010.93
2018-04-26T06:38:54.623Z,1010.97
2018-04-26T06:39:54.630Z,1011.03
2018-04-26T06:40:54.613Z,1011.13
2018-04-26T06:41:54.611Z,1011.17
2018-04-26T06:42:54.602Z,1011.10
2018-04-26T06:43:54.600Z,1011.09
2018-04-26T06:44:54.590Z,1011.05
2018-04-26T06:45:54.585Z,1011.10
2018-04-26T06:46:54.580Z,1011.03
2018-04-26T06:47:54.643Z,1011.06
2018-04-26T06:48:54.573Z,1011.07
2018-04-26T06:49:54.644Z,1011.08
2018-04-26T06:50:54.561Z,1011.06
2018-04-26T06:51:54.556Z,1011.02
2018-04-26T06:52:54.554Z,1011.16
2018-04-26T06:53:54.551Z,1011.13
2018-04-26T06:54:54.541Z,1011.19
2018-04-26T06:55:54.536Z,1011.23
2018-04-26T06:56:54.533Z,1011.22
2018-04-26T06:57:54.525Z,1011.24
2018-04-26T06:58:54.520Z,1011.29
2018-04-26T06:59:54.516Z,1011.25
2018-04-26T07:00:54.511Z,1011.23
2018-04-26T07:01:54.507Z,1011.18
2018-04-26T07:02:54.506Z,1011.24
2018-04-26T07:03:54.505Z,1011.28
2018-04-26T07:04:54.492Z,1011.28
2018-04-26T07:05:54.563Z,1011.35
2018-04-26T07:06:54.487Z,1011.34
2018-04-26T07:07:54.483Z,1011.29
2018-04-26T07:08:54.474Z,1011.24
2018-04-26T07:09:54.470Z,1011.16
2018-04-26T07:10:54.465Z,1011.21
2018-04-26T07:11:54.462Z,1011.30
2018-04-26T07:12:54.455Z,1011.30
2018-04-26T07:13:54.451Z,1011.33
2018-04-26T07:14:54.446Z,1011.23
2018-04-26T07:15:54.441Z,1011.31
2018-04-26T07:16:54.436Z,1011.34
2018-04-26T07:17:54.432Z,1011.35
2018-04-26T07:18:54.427Z,1011.28
2018-04-26T07:19:54.427Z,1011.22
2018-04-26T07:20:54.422Z,1011.21
2018-04-26T07:21:54.464Z,1011.28
2018-04-26T07:22:54.407Z,1011.29
2018-04-26T07:23:54.403Z,1011.25
2018-04-26T07:24:54.403Z,1011.28
2018-04-26T07:25:54.400Z,1011.39
2018-04-26T07:26:54.389Z,1011.40
2018-04-26T07:27:54.385Z,1011.75
2018-04-26T07:28:54.381Z,1011.76
2018-04-26T07:29:54.375Z,1012.26
2018-04-26T07:30:54.370Z,1011.86
2018-04-26T07:31:54.370Z,1012.05
2018-04-26T07:32:54.365Z,1011.76
2018-04-26T07:33:54.363Z,1011.73
2018-04-26T07:34:54.383Z,1011.60
2018-04-26T07:35:54.352Z,1011.71
2018-04-26T07:36:54.348Z,1011.63
2018-04-26T07:37:54.346Z,1011.69
2018-04-26T07:38:54.344Z,1011.75
2018-04-26T07:39:54.341Z,1011.83
2018-04-26T07:40:54.338Z,1011.73
2018-04-26T07:41:54.336Z,1011.80
2018-04-26T07:42:54.335Z,1011.77
2018-04-26T07:43:54.334Z,1011.73
2018-04-26T07:44:54.335Z,1011.72
2018-04-26T07:45:54.335Z,1011.64
2018-04-26T07:46:54.334Z,1011.69
2018-04-26T07:47:54.334Z,1011.68
2018-04-26T07:48:54.332Z,1011.55
2018-04-26T07:49:54.328Z,1011.63
2018-04-26T07:50:54.328Z,1011.71
2018-04-26T07:51:54.328Z,1011.56
2018-04-26T07:52:54.328Z,1011.58
2018-04-26T07:53:54.328Z,1011.50
2018-04-26T07:54:54.328Z,1011.57
2018-04-26T07:55:54.329Z,1011.55
2018-04-26T07:56:54.329Z,1011.67
2018-04-26T07:57:54.329Z,1011.60
2018-04-26T07:58:54.337Z,1011.65
2018-04-26T07:59:54.334Z,1011.65
2018-04-26T08:00:54.335Z,1011.77
2018-04-26T08:01:54.331Z,1012.11
2018-04-26T08:02:54.331Z,1011.67
2018-04-26T08:03:54.336Z,1011.75
2018-04-26T08:04:54.335Z,1011.69
2018-04-26T08:05:54.336Z,1011.63
2018-04-26T08:06:54.335Z,1011.64
2018-04-26T08:07:54.335Z,1011.68
2018-04-26T08:08:54.333Z,1011.65
2018-04-26T08:09:54.334Z,1011.67
2018-04-26T08:10:54.335Z,1011.85
2018-04-26T08:11:54.337Z,1011.78
2018-04-26T08:12:54.336Z,1011.78
2018-04-26T08:13:54.336Z,1011.92
2018-04-26T08:14:54.337Z,1012.27
2018-04-26T08:15:54.337Z,1012.24
2018-04-26T08:16:54.341Z,1011.83
2018-04-26T08:17:54.343Z,1012.25
2018-04-26T08:18:54.344Z,1011.94
2018-04-26T08:19:54.346Z,1011.87
2018-04-26T08:20:54.343Z,1011.80
2018-04-26T08:21:54.346Z,1011.91
2018-04-26T08:22:54.348Z,1011.90
2018-04-26T08:23:54.350Z,1011.86
2018-04-26T08:24:54.374Z,1011.81
2018-04-26T08:25:54.356Z,1011.78
2018-04-26T08:26:54.357Z,1011.75
2018-04-26T08:27:54.359Z,1011.84
2018-04-26T08:28:54.361Z,1011.90
2018-04-26T08:29:54.365Z,1011.91
2018-04-26T08:30:54.370Z,1011.82
2018-04-26T08:31:54.376Z,1011.90
2018-04-26T08:32:54.369Z,1011.87
2018-04-26T08:33:54.371Z,1011.89
2018-04-26T08:34:54.373Z,1011.88
2018-04-26T08:35:54.374Z,1011.93
2018-04-26T08:36:54.386Z,1011.88
2018-04-26T08:37:54.379Z,1011.97
2018-04-26T08:38:54.379Z,1011.99
2018-04-26T08:39:54.386Z,1012.18
2018-04-26T08:40:54.376Z,1012.61
2018-04-26T08:41:54.376Z,1012.76
2018-04-26T08:42:54.381Z,1012.88
2018-04-26T08:43:54.383Z,1012.95
2018-04-26T08:44:54.380Z,1012.92
2018-04-26T08:45:54.380Z,1012.60
2018-04-26T08:46:54.384Z,1013.05
2018-04-26T08:47:54.387Z,1013.11
2018-04-26T08:48:54.389Z,1012.91
2018-04-26T08:49:54.392Z,1013.27
2018-04-26T08:50:54.400Z,1013.29
2018-04-26T08:51:54.402Z,1013.41
2018-04-26T08:52:54.412Z,1013.38
2018-04-26T08:53:54.412Z,1013.39
2018-04-26T08:54:54.420Z,1013.48
2018-04-26T08:55:54.427Z,1013.42
2018-04-26T08:56:54.442Z,1013.53
2018-04-26T08:57:54.446Z,1013.16
2018-04-26T08:58:54.451Z,1013.60
2018-04-26T08:59:54.460Z,1013.60
2018-04-26T09:00:54.473Z,1013.54
2018-04-26T09:01:54.483Z,1013.63
2018-04-26T09:02:54.492Z,1013.48
2018-04-26T09:03:54.502Z,1013.46
2018-04-26T09:04:54.512Z,1013.38
2018-04-26T09:05:54.526Z,1013.35
2018-04-26T09:06:54.538Z,1013.29
2018-04-26T09:07:54.550Z,1013.13
2018-04-26T09:08:54.563Z,1013.14
2018-04-26T09:09:54.575Z,1012.80
2018-04-26T09:10:54.593Z,1013.21
2018-04-26T09:11:54.607Z,1013.22
2018-04-26T09:12:54.615Z,1012.87
2018-04-26T09:13:54.632Z,1013.19
2018-04-26T09:14:54.648Z,1013.25
2018-04-26T09:15:54.737Z,1013.26
2018-04-26T09:16:54.672Z,1013.31
2018-04-26T09:17:54.688Z,1013.29
2018-04-26T09:18:54.701Z,1013.32
2018-04-26T09:19:54.717Z,1013.43
2018-04-26T09:20:54.730Z,1012.73
2018-04-26T09:21:54.800Z,1012.67
2018-04-26T09:22:54.761Z,1012.63
2018-04-26T09:23:54.775Z,1012.64
2018-04-26T09:24:54.789Z,1012.61
2018-04-26T09:25:54.805Z,1013.02
2018-04-26T09:26:54.818Z,1012.92
2018-04-26T09:27:54.835Z,1013.04
2018-04-26T09:28:54.848Z,1013.42
2018-04-26T09:29:54.861Z,1013.51
2018-04-26T09:30:54.870Z,1013.59
2018-04-26T09:31:54.884Z,1013.65
2018-04-26T09:32:54.900Z,1012.84
2018-04-26T09:33:54.913Z,1013.15
2018-04-26T09:34:54.922Z,1013.31
2018-04-26T09:35:54.936Z,1013.58
2018-04-26T09:36:54.949Z,1013.88
2018-04-26T09:37:54.963Z,1013.21
2018-04-26T09:38:54.978Z,1013.26
2018-04-26T09:39:54.990Z,1013.71
2018-04-26T09:40:55.007Z,1013.22
2018-04-26T09:41:55.021Z,1013.07
2018-04-26T09:42:55.032Z,1012.99
2018-04-26T09:43:55.044Z,1013.50
2018-04-26T09:44:55.057Z,1013.59
2018-04-26T09:45:55.070Z,1013.45
2018-04-26T09:46:55.085Z,1013.16
2018-04-26T09:47:55.098Z,1013.23
2018-04-26T09:48:55.109Z,1013.72
2018-04-26T09:49:55.123Z,1013.20
2018-04-26T09:50:55.137Z,1013.22
2018-04-26T09:51:55.151Z,1013.01
2018-04-26T09:52:55.167Z,1013.27
2018-04-26T09:53:55.181Z,1012.99
2018-04-26T09:54:55.195Z,1012.94
2018-04-26T09:55:55.207Z,1012.84
2018-04-26T09:56:55.215Z,1012.74
2018-04-26T09:57:55.227Z,1012.76
2018-04-26T09:58:55.241Z,1012.83
2018-04-26T09:59:55.254Z,1012.85
2018-04-26T10:00:55.263Z,1013.28
2018-04-26T10:01:55.275Z,1013.27
2018-04-26T10:02:55.285Z,1012.90
2018-04-26T10:03:55.297Z,1013.06
2018-04-26T10:04:55.306Z,1013.14
2018-04-26T10:05:55.319Z,1012.81
2018-04-26T10:06:55.333Z,1012.79
2018-04-26T10:07:55.343Z,1012.89
2018-04-26T10:08:55.369Z,1012.80
2018-04-26T10:09:55.359Z,1012.70
2018-04-26T10:10:55.371Z,1012.72
2018-04-26T10:11:55.381Z,1012.68
2018-04-26T10:12:55.397Z,1012.65
2018-04-26T10:13:55.405Z,1012.74
2018-04-26T10:14:55.409Z,1012.86
2018-04-26T10:15:55.418Z,1012.73
2018-04-26T10:16:55.463Z,1012.74
2018-04-26T10:17:55.440Z,1013.02
2018-04-26T10:18:55.444Z,1013.02
2018-04-26T10:19:55.453Z,1012.75
2018-04-26T10:20:55.459Z,1012.75
2018-04-26T10:21:55.472Z,1012.74
2018-04-26T10:22:55.475Z,1012.68
2018-04-26T10:23:55.484Z,1012.67
2018-04-26T10:24:55.517Z,1012.67
2018-04-26T10:25:55.507Z,1012.73
2018-04-26T10:26:55.512Z,1013.16
2018-04-26T10:27:55.520Z,1012.88
2018-04-26T10:28:55.525Z,1012.90
2018-04-26T10:29:55.573Z,1013.20
2018-04-26T10:30:55.540Z,1012.90
2018-04-26T10:31:55.546Z,1012.80
2018-04-26T10:32:55.554Z,1012.78
2018-04-26T10:33:55.563Z,1012.99
2018-04-26T10:34:55.569Z,1012.88
2018-04-26T10:35:55.578Z,1012.83
2018-04-26T10:36:55.586Z,1012.90
2018-04-26T10:37:55.593Z,1012.88
2018-04-26T10:38:55.605Z,1012.76
2018-04-26T10:39:55.618Z,1012.79
2018-04-26T10:40:55.616Z,1012.81
2018-04-26T10:41:55.623Z,1013.03
2018-04-26T10:42:55.632Z,1012.77
2018-04-26T10:43:55.639Z,1012.80
2018-04-26T10:44:55.646Z,1012.82
2018-04-26T10:45:55.652Z,1012.76
2018-04-26T10:46:55.665Z,1013.16
2018-04-26T10:47:55.671Z,1012.87
2018-04-26T10:48:55.676Z,1012.90
2018-04-26T10:49:55.680Z,1013.10
2018-04-26T10:50:55.692Z,1012.90
2018-04-26T10:51:55.701Z,1012.83
2018-04-26T10:52:55.767Z,1012.83
2018-04-26T10:53:55.708Z,1012.74
2018-04-26T10:54:55.715Z,1012.75
2018-04-26T10:55:55.801Z,1012.74
2018-04-26T10:56:55.729Z,1013.01
2018-04-26T10:57:55.735Z,1012.78
2018-04-26T10:58:55.745Z,1012.90
2018-04-26T10:59:55.749Z,1012.65
2018-04-26T11:00:55.761Z,1012.66
2018-04-26T11:01:55.764Z,1013.04
2018-04-26T11:02:55.770Z,1012.74
2018-04-26T11:03:55.777Z,1012.77
2018-04-26T11:04:55.801Z,1012.73
2018-04-26T11:05:55.794Z,1012.72
2018-04-26T11:06:55.798Z,1012.81
2018-04-26T11:07:55.804Z,1012.71
2018-04-26T11:08:55.818Z,1012.56
2018-04-26T11:09:55.822Z,1012.60
2018-04-26T11:10:55.825Z,1012.61
2018-04-26T11:11:55.831Z,1012.56
2018-04-26T11:12:55.841Z,1012.56
2018-04-26T11:13:55.842Z,1012.52
2018-04-26T11:14:55.849Z,1012.48
2018-04-26T11:15:55.855Z,1012.51
2018-04-26T11:16:55.859Z,1012.62
2018-04-26T11:17:55.865Z,1012.65
2018-04-26T11:18:55.877Z,1012.63
2018-04-26T11:19:55.879Z,1012.58
2018-04-26T11:20:55.880Z,1012.73
2018-04-26T11:21:55.885Z,1012.61
2018-04-26T11:22:55.897Z,1012.58
2018-04-26T11:23:55.900Z,1012.53
2018-04-26T11:24:55.899Z,1012.50
2018-04-26T11:25:55.915Z,1012.47
2018-04-26T11:26:55.909Z,1012.46
2018-04-26T11:27:55.915Z,1012.47
2018-04-26T11:28:55.917Z,1012.51
2018-04-26T11:29:55.922Z,1012.44
2018-04-26T11:30:55.991Z,1012.42
2018-04-26T11:31:55.930Z,1012.37
2018-04-26T11:32:55.936Z,1012.44
2018-04-26T11:33:55.940Z,1012.40
2018-04-26T11:34:55.940Z,1012.44
2018-04-26T11:35:55.945Z,1012.46
2018-04-26T11:36:55.951Z,1012.39
2018-04-26T11:37:55.955Z,1012.42
2018-04-26T11:38:55.959Z,1012.35
2018-04-26T11:39:55.958Z,1012.44
2018-04-26T11:40:55.963Z,1012.53
2018-04-26T11:41:56.011Z,1012.52
2018-04-26T11:42:55.967Z,1012.45
2018-04-26T11:43:55.968Z,1012.47
2018-04-26T11:44:55.972Z,1012.53
2018-04-26T11:45:55.973Z,1012.60
2018-04-26T11:46:55.976Z,1012.53
2018-04-26T11:47:55.978Z,1012.60
2018-04-26T11:48:55.989Z,1012.48
2018-04-26T11:49:55.987Z,1012.47
2018-04-26T11:50:55.986Z,1012.41
2018-04-26T11:51:55.992Z,1012.36
2018-04-26T11:52:55.991Z,1012.39
2018-04-26T11:53:55.995Z,1012.37
2018-04-26T11:54:55.996Z,1012.37
2018-04-26T11:55:55.999Z,1012.47
2018-04-26T11:56:56.001Z,1012.42
2018-04-26T11:57:56.005Z,1012.44
2018-04-26T11:58:56.007Z,1012.42
2018-04-26T11:59:56.010Z,1012.48
2018-04-26T12:00:56.017Z,1012.42
2018-04-26T12:01:56.021Z,1012.43
2018-04-26T12:02:56.026Z,1012.50
2018-04-26T12:03:56.025Z,1012.45
2018-04-26T12:04:56.027Z,1012.54
2018-04-26T12:05:56.027Z,1012.45